createdAt,value
2022-08-05T00:00:19.068Z,13.27
2022-08-05T00:02:51.042Z,14.02
2022-08-05T00:06:01.506Z,16.02
2022-08-05T00:08:32.933Z,14.30
2022-08-05T00:11:00.812Z,15.25
2022-08-05T00:13:39.592Z,14.65
2022-08-05T00:16:12.543Z,15.20
2022-08-05T00:18:44.479Z,15.73
2022-08-05T00:21:14.542Z,19.60
2022-08-05T00:23:46.778Z,16.48
2022-08-05T00:26:22.021Z,19.55
2022-08-05T00:28:50.767Z,18.80
2022-08-05T00:31:41.473Z,19.35
2022-08-05T00:34:56.127Z,18.05
2022-08-05T00:37:10.959Z,18.98
2022-08-05T00:39:57.192Z,18.73
2022-08-05T00:42:37.435Z,20.05
2022-08-05T00:45:08.560Z,20.20
2022-08-05T00:47:56.322Z,21.13
2022-08-05T00:50:25.780Z,20.73
2022-08-05T00:52:54.986Z,21.02
2022-08-05T00:55:42.103Z,18.63
2022-08-05T00:58:16.894Z,18.38
2022-08-05T01:00:47.708Z,19.45
2022-08-05T01:03:23.223Z,17.58
2022-08-05T01:05:51.933Z,18.25
2022-08-05T01:08:40.112Z,17.80
2022-08-05T01:11:36.765Z,17.05
2022-08-05T01:14:56.851Z,17.05
2022-08-05T01:17:53.635Z,15.73
2022-08-05T01:20:37.524Z,16.13
2022-08-05T01:23:34.609Z,16.27
2022-08-05T01:26:40.531Z,16.30
2022-08-05T01:29:49.992Z,15.48
2022-08-05T01:32:23.399Z,15.20
2022-08-05T01:35:01.283Z,15.45
2022-08-05T01:37:44.417Z,15.25
2022-08-05T01:40:13.337Z,15.27
2022-08-05T01:42:47.331Z,13.82
2022-08-05T01:45:17.121Z,13.68
2022-08-05T01:47:46.745Z,13.60
2022-08-05T01:50:28.574Z,14.30
2022-08-05T01:53:02.415Z,13.18
2022-08-05T01:55:36.008Z,14.18
2022-08-05T01:58:12.356Z,14.77
2022-08-05T02:00:46.551Z,14.43
2022-08-05T02:03:48.189Z,14.88
2022-08-05T02:06:33.623Z,14.45
2022-08-05T02:09:04.658Z,14.60
2022-08-05T02:12:10.430Z,15.00
2022-08-05T02:14:48.145Z,15.27
2022-08-05T02:18:31.263Z,14.90
2022-08-05T02:20:28.419Z,15.25
2022-08-05T02:23:00.628Z,14.60
2022-08-05T02:25:49.958Z,15.23
2022-08-05T02:28:29.337Z,15.25
2022-08-05T02:31:02.844Z,15.20
2022-08-05T02:33:38.909Z,14.80
2022-08-05T02:36:13.635Z,13.98
2022-08-05T02:38:53.201Z,12.48
2022-08-05T02:41:28.958Z,13.98
2022-08-05T02:44:13.353Z,14.32
2022-08-05T02:46:43.883Z,14.38
2022-08-05T02:49:27.716Z,14.05
2022-08-05T02:52:08.815Z,13.68
2022-08-05T02:54:41.186Z,13.98
2022-08-05T02:58:12.050Z,15.10
2022-08-05T03:00:00.569Z,13.13
2022-08-05T03:02:40.480Z,14.52
2022-08-05T03:05:12.076Z,14.52
2022-08-05T03:08:07.436Z,12.88
2022-08-05T03:10:29.209Z,14.20
2022-08-05T03:15:23.275Z,14.80
2022-08-05T03:17:57.624Z,15.55
2022-08-05T03:20:25.142Z,15.30
2022-08-05T03:22:53.364Z,17.23
2022-08-05T03:25:33.587Z,14.80
2022-08-05T03:28:14.105Z,16.20
2022-08-05T03:30:42.277Z,15.20
2022-08-05T03:33:09.857Z,16.27
2022-08-05T03:35:40.805Z,16.00
2022-08-05T03:38:11.910Z,14.88
2022-08-05T03:40:45.332Z,15.77
2022-08-05T03:43:58.893Z,14.77
2022-08-05T03:46:03.530Z,15.30
2022-08-05T03:48:35.236Z,16.08
2022-08-05T03:52:38.779Z,15.32
2022-08-05T03:55:34.664Z,16.05
2022-08-05T03:57:29.053Z,16.13
2022-08-05T04:00:16.006Z,14.93
2022-08-05T04:02:57.750Z,14.63
2022-08-05T04:05:34.561Z,14.85
2022-08-05T04:08:05.856Z,15.40
2022-08-05T04:10:45.398Z,15.38
2022-08-05T04:13:13.043Z,14.27
2022-08-05T04:16:03.319Z,16.02
2022-08-05T04:18:27.653Z,17.27
2022-08-05T04:20:57.015Z,16.55
2022-08-05T04:24:01.108Z,16.90
2022-08-05T04:26:17.340Z,14.80
2022-08-05T04:28:50.786Z,16.85
2022-08-05T04:31:18.308Z,17.77
2022-08-05T04:34:17.594Z,17.65
2022-08-05T04:36:45.117Z,19.60
2022-08-05T04:39:18.669Z,17.75
2022-08-05T04:41:48.055Z,17.02
2022-08-05T04:44:21.222Z,17.77
2022-08-05T04:47:09.011Z,17.08
2022-08-05T04:50:02.385Z,16.45
2022-08-05T04:52:28.211Z,15.85
2022-08-05T04:54:57.466Z,15.45
2022-08-05T04:57:28.521Z,17.65
2022-08-05T04:59:58.764Z,17.48
2022-08-05T05:02:36.497Z,17.30
2022-08-05T05:05:16.744Z,17.85
2022-08-05T05:08:14.495Z,17.88
2022-08-05T05:10:56.655Z,15.50
2022-08-05T05:13:24.130Z,15.73
2022-08-05T05:15:56.157Z,15.93
2022-08-05T05:18:31.627Z,14.65
2022-08-05T05:21:01.473Z,15.90
2022-08-05T05:24:02.525Z,15.65
2022-08-05T05:26:15.492Z,15.63
2022-08-05T05:28:44.984Z,14.75
2022-08-05T05:31:12.941Z,15.35
2022-08-05T05:33:58.891Z,17.17
2022-08-05T05:36:28.682Z,16.95
2022-08-05T05:38:57.410Z,16.65
2022-08-05T05:41:24.603Z,14.25
2022-08-05T05:43:57.598Z,16.00
2022-08-05T05:46:27.155Z,15.23
2022-08-05T05:48:54.054Z,14.85
2022-08-05T05:51:27.827Z,15.60
2022-08-05T05:53:59.586Z,14.38
2022-08-05T05:56:32.470Z,14.60
2022-08-05T05:59:06.953Z,14.07
2022-08-05T06:01:41.202Z,13.65
2022-08-05T06:04:25.086Z,14.73
2022-08-05T06:06:52.118Z,12.75
2022-08-05T06:09:26.700Z,14.07
2022-08-05T06:12:06.886Z,14.02
2022-08-05T06:14:37.148Z,12.55
2022-08-05T06:17:22.372Z,13.50
2022-08-05T06:19:57.232Z,12.75
2022-08-05T06:22:34.055Z,12.75
2022-08-05T06:25:59.741Z,12.85
2022-08-05T06:28:11.370Z,11.57
2022-08-05T06:30:37.215Z,10.65
2022-08-05T06:33:04.189Z,9.68
2022-08-05T06:36:04.215Z,9.75
2022-08-05T06:38:18.197Z,9.00
2022-08-05T06:41:04.808Z,9.70
2022-08-05T06:43:59.420Z,9.77
2022-08-05T06:46:19.065Z,9.98
2022-08-05T06:48:56.379Z,7.50
2022-08-05T06:51:30.050Z,8.05
2022-08-05T06:54:03.305Z,8.52
2022-08-05T06:56:33.881Z,6.63
2022-08-05T06:59:08.354Z,5.15
2022-08-05T07:01:36.926Z,5.28
2022-08-05T07:04:04.294Z,6.93
2022-08-05T07:06:31.780Z,5.93
2022-08-05T07:09:04.061Z,7.55
2022-08-05T07:11:36.930Z,6.82
2022-08-05T07:14:29.235Z,5.40
2022-08-05T07:17:58.903Z,6.93
2022-08-05T07:22:42.530Z,6.10
2022-08-05T07:25:23.091Z,5.68
2022-08-05T07:28:05.362Z,5.60
2022-08-05T07:30:38.703Z,6.45
2022-08-05T07:33:16.479Z,5.90
2022-08-05T07:36:03.869Z,4.80
2022-08-05T07:38:43.103Z,4.72
2022-08-05T07:42:13.204Z,4.75
2022-08-05T07:46:48.540Z,4.60
2022-08-05T07:49:18.078Z,2.95
2022-08-05T07:51:53.490Z,3.70
2022-08-05T07:54:30.884Z,3.75
2022-08-05T07:57:13.863Z,3.22
2022-08-05T07:59:49.767Z,3.10
2022-08-05T08:02:18.173Z,2.83
2022-08-05T08:04:47.779Z,2.63
2022-08-05T08:07:18.385Z,2.30
2022-08-05T08:12:36.903Z,1.92
2022-08-05T08:15:15.804Z,2.38
2022-08-05T08:17:50.617Z,2.30
2022-08-05T08:21:00.453Z,2.42
2022-08-05T08:24:02.164Z,2.35
2022-08-05T08:26:02.655Z,2.47
2022-08-05T08:28:36.831Z,2.03
2022-08-05T08:31:15.027Z,1.95
2022-08-05T08:33:45.859Z,2.08
2022-08-05T08:36:38.474Z,2.22
2022-08-05T08:39:01.609Z,2.25
2022-08-05T08:41:52.393Z,2.63
2022-08-05T08:45:17.202Z,2.17
2022-08-05T08:47:21.676Z,2.60
2022-08-05T08:50:22.604Z,1.60
2022-08-05T08:52:55.883Z,2.17
2022-08-05T08:56:02.811Z,2.42
2022-08-05T08:58:13.018Z,2.25
2022-08-05T09:00:42.291Z,2.25
2022-08-05T09:03:16.305Z,2.40
2022-08-05T09:06:09.220Z,1.77
2022-08-05T09:08:35.027Z,2.13
2022-08-05T09:11:04.449Z,1.92
2022-08-05T09:14:01.138Z,2.45
2022-08-05T09:16:26.821Z,2.80
2022-08-05T09:18:55.507Z,2.92
2022-08-05T09:22:22.751Z,3.57
2022-08-05T09:24:10.454Z,1.98
2022-08-05T09:26:37.589Z,2.35
2022-08-05T09:29:08.859Z,1.70
2022-08-05T09:32:40.851Z,1.17
2022-08-05T09:34:23.476Z,1.80
2022-08-05T09:36:55.681Z,1.77
2022-08-05T09:39:44.708Z,1.50
2022-08-05T09:42:23.271Z,0.77
2022-08-05T09:44:57.456Z,0.98
2022-08-05T09:47:49.046Z,1.20
2022-08-05T09:50:37.805Z,1.15
2022-08-05T09:53:08.792Z,2.40
2022-08-05T09:55:57.524Z,0.90
2022-08-05T09:58:29.126Z,1.27
2022-08-05T10:01:14.965Z,1.05
2022-08-05T10:04:00.407Z,0.80
2022-08-05T10:06:28.304Z,0.82
2022-08-05T10:09:27.314Z,0.75
2022-08-05T10:12:29.967Z,0.85
2022-08-05T10:15:16.301Z,0.90
2022-08-05T10:17:47.532Z,0.60
2022-08-05T10:20:28.549Z,1.45
2022-08-05T10:22:58.396Z,0.88
2022-08-05T10:25:25.794Z,0.52
2022-08-05T10:28:13.166Z,1.00
2022-08-05T10:32:47.137Z,0.40
2022-08-05T10:33:34.312Z,0.82
2022-08-05T10:36:04.736Z,0.60
2022-08-05T10:38:35.617Z,0.30
2022-08-05T10:41:27.909Z,0.40
2022-08-05T10:44:17.215Z,0.35
2022-08-05T10:46:54.262Z,0.57
2022-08-05T10:49:33.505Z,0.40
2022-08-05T10:52:49.425Z,0.40
2022-08-05T10:55:18.495Z,0.40
2022-08-05T10:57:46.669Z,0.60
2022-08-05T11:00:23.113Z,0.77
2022-08-05T11:03:23.181Z,0.68
2022-08-05T11:06:15.032Z,0.40
2022-08-05T11:09:17.724Z,1.52
2022-08-05T11:11:53.613Z,0.40
2022-08-05T11:14:57.909Z,0.77
2022-08-05T11:17:58.917Z,0.60
2022-08-05T11:20:47.499Z,0.65
2022-08-05T11:24:05.160Z,0.80
2022-08-05T11:26:33.698Z,0.60
2022-08-05T11:29:13.991Z,0.50
2022-08-05T11:31:57.801Z,0.70
2022-08-05T11:34:51.608Z,0.80
2022-08-05T11:38:30.911Z,0.60
2022-08-05T11:41:01.772Z,0.90
2022-08-05T11:44:06.654Z,0.50
2022-08-05T11:46:58.326Z,0.75
2022-08-05T11:49:35.424Z,0.93
2022-08-05T11:52:08.743Z,0.55
2022-08-05T11:54:41.547Z,0.70
2022-08-05T11:57:25.041Z,0.70
2022-08-05T11:59:54.783Z,0.70
2022-08-05T12:02:30.701Z,0.60
2022-08-05T12:05:07.453Z,0.73
2022-08-05T12:08:08.838Z,0.88
2022-08-05T12:10:38.465Z,0.68
2022-08-05T12:13:17.224Z,1.02
2022-08-05T12:15:50.189Z,0.50
2022-08-05T12:18:19.091Z,1.03
2022-08-05T12:20:47.840Z,0.38
2022-08-05T12:23:14.906Z,0.45
2022-08-05T12:25:56.820Z,0.57
2022-08-05T12:28:38.281Z,0.52
2022-08-05T12:31:06.182Z,0.60
2022-08-05T12:33:36.383Z,0.68
2022-08-05T12:36:08.466Z,0.60
2022-08-05T12:38:41.149Z,0.73
2022-08-05T12:41:14.077Z,0.80
2022-08-05T12:43:57.362Z,0.63
2022-08-05T12:49:14.894Z,0.68
2022-08-05T12:52:13.649Z,0.52
2022-08-05T12:54:49.791Z,0.65
2022-08-05T12:57:19.005Z,0.32
2022-08-05T13:01:58.424Z,0.95
2022-08-05T13:02:42.827Z,1.10
2022-08-05T13:05:15.104Z,0.75
2022-08-05T13:08:01.618Z,0.40
2022-08-05T13:10:33.174Z,0.88
2022-08-05T13:13:00.417Z,0.80
2022-08-05T13:15:41.607Z,0.63
2022-08-05T13:18:20.178Z,0.50
2022-08-05T13:20:49.829Z,0.73
2022-08-05T13:23:22.668Z,0.77
2022-08-05T13:25:59.636Z,0.47
2022-08-05T13:28:29.147Z,0.50
2022-08-05T13:30:59.490Z,0.90
2022-08-05T13:34:22.810Z,0.57
2022-08-05T13:36:18.495Z,0.80
2022-08-05T13:38:46.303Z,0.70
2022-08-05T13:41:19.406Z,0.73
2022-08-05T13:43:55.236Z,0.88
2022-08-05T13:46:50.630Z,0.90
2022-08-05T13:49:12.738Z,0.85
2022-08-05T13:51:46.393Z,0.70
2022-08-05T13:54:16.365Z,0.88
2022-08-05T13:56:50.713Z,1.00
2022-08-05T13:59:24.366Z,0.85
2022-08-05T14:01:58.917Z,0.75
2022-08-05T14:04:52.994Z,0.63
2022-08-05T14:10:28.485Z,0.63
2022-08-05T14:12:59.509Z,0.60
2022-08-05T14:16:07.236Z,1.17
2022-08-05T14:18:18.670Z,0.57
2022-08-05T14:20:54.479Z,0.85
2022-08-05T14:23:25.291Z,0.60
2022-08-05T14:25:58.230Z,0.50
2022-08-05T14:28:29.461Z,0.50
2022-08-05T14:31:01.634Z,1.13
2022-08-05T14:33:56.643Z,0.50
2022-08-05T14:36:20.499Z,0.65
2022-08-05T14:38:50.117Z,0.43
2022-08-05T14:41:18.706Z,0.47
2022-08-05T14:43:58.883Z,0.40
2022-08-05T14:46:30.604Z,0.40
2022-08-05T14:49:06.734Z,0.45
2022-08-05T14:51:42.501Z,0.63
2022-08-05T14:54:27.747Z,0.30
2022-08-05T14:56:58.514Z,0.30
2022-08-05T14:59:29.777Z,0.68
2022-08-05T15:02:14.845Z,0.40
2022-08-05T15:04:43.824Z,0.80
2022-08-05T15:07:12.252Z,0.45
2022-08-05T15:10:01.545Z,0.60
2022-08-05T15:12:41.093Z,0.30
2022-08-05T15:15:17.425Z,0.50
2022-08-05T15:18:05.619Z,0.40
2022-08-05T15:20:35.897Z,0.47
2022-08-05T15:23:08.845Z,0.40
2022-08-05T15:25:50.859Z,0.40
2022-08-05T15:28:20.190Z,0.77
2022-08-05T15:30:54.010Z,0.30
2022-08-05T15:33:53.762Z,0.55
2022-08-05T15:36:11.563Z,0.45
2022-08-05T15:38:46.458Z,0.60
2022-08-05T15:41:22.800Z,0.35
2022-08-05T15:43:54.510Z,0.60
2022-08-05T15:46:24.318Z,0.45
2022-08-05T15:49:00.557Z,1.42
2022-08-05T15:52:10.052Z,0.35
2022-08-05T15:54:17.629Z,0.70
2022-08-05T15:56:44.626Z,0.40
2022-08-05T15:59:21.884Z,0.60
2022-08-05T16:01:53.744Z,0.50
2022-08-05T16:04:25.449Z,0.60
2022-08-05T16:06:55.749Z,0.63
2022-08-05T16:09:24.770Z,0.45
2022-08-05T16:11:54.004Z,0.32
2022-08-05T16:14:25.002Z,0.40
2022-08-05T16:16:52.508Z,0.25
2022-08-05T16:20:02.432Z,0.50
2022-08-05T16:22:10.665Z,0.38
2022-08-05T16:24:41.454Z,0.25
2022-08-05T16:27:18.360Z,0.70
2022-08-05T16:29:50.843Z,0.30
2022-08-05T16:32:28.296Z,0.55
2022-08-05T16:34:57.482Z,0.50
2022-08-05T16:38:02.404Z,0.35
2022-08-05T16:40:26.735Z,0.40
2022-08-05T16:42:56.823Z,1.00
2022-08-05T16:46:04.608Z,0.30
2022-08-05T16:48:10.914Z,0.40
2022-08-05T16:50:53.151Z,0.40
2022-08-05T16:53:22.909Z,0.60
2022-08-05T16:55:58.966Z,0.40
2022-08-05T16:58:26.775Z,0.50
2022-08-05T17:00:53.817Z,0.38
2022-08-05T17:03:21.972Z,0.40
2022-08-05T17:05:54.026Z,0.93
2022-08-05T17:08:36.458Z,0.88
2022-08-05T17:11:17.618Z,1.08
2022-08-05T17:13:45.829Z,0.60
2022-08-05T17:16:29.621Z,0.63
2022-08-05T17:18:57.892Z,0.50
2022-08-05T17:21:25.094Z,0.63
2022-08-05T17:24:19.689Z,0.63
2022-08-05T17:26:57.767Z,0.77
2022-08-05T17:29:33.588Z,1.00
2022-08-05T17:32:11.927Z,2.35
2022-08-05T17:34:47.665Z,1.75
2022-08-05T17:37:39.824Z,1.98
2022-08-05T17:40:12.870Z,1.52
2022-08-05T17:42:49.866Z,1.65
2022-08-05T17:45:25.113Z,1.90
2022-08-05T17:47:56.660Z,0.80
2022-08-05T17:50:30.392Z,1.42
2022-08-05T17:53:02.755Z,0.88
2022-08-05T17:55:37.617Z,1.00
2022-08-05T17:58:13.504Z,0.80
2022-08-05T18:00:47.420Z,0.68
2022-08-05T18:03:59.720Z,1.10
2022-08-05T18:06:11.925Z,1.30
2022-08-05T18:08:45.918Z,0.98
2022-08-05T18:11:23.717Z,0.75
2022-08-05T18:13:54.132Z,1.10
2022-08-05T18:16:22.458Z,1.50
2022-08-05T18:18:50.121Z,1.40
2022-08-05T18:21:21.182Z,1.40
2022-08-05T18:23:53.630Z,1.13
2022-08-05T18:26:27.467Z,1.40
2022-08-05T18:28:57.696Z,1.50
2022-08-05T18:31:24.994Z,1.50
2022-08-05T18:33:52.222Z,1.20
2022-08-05T18:36:19.884Z,1.83
2022-08-05T18:38:55.670Z,1.33
2022-08-05T18:41:58.150Z,0.95
2022-08-05T18:44:10.830Z,1.45
2022-08-05T18:46:41.192Z,1.42
2022-08-05T18:49:30.312Z,1.05
2022-08-05T18:52:16.619Z,1.30
2022-08-05T18:54:45.887Z,1.25
2022-08-05T18:57:15.380Z,1.35
2022-08-05T19:00:03.266Z,1.00
2022-08-05T19:02:30.060Z,1.35
2022-08-05T19:06:06.388Z,1.80
2022-08-05T19:07:50.254Z,2.05
2022-08-05T19:10:26.652Z,2.03
2022-08-05T19:12:57.167Z,1.58
2022-08-05T19:15:56.607Z,1.35
2022-08-05T19:18:22.365Z,1.45
2022-08-05T19:20:52.417Z,1.33
2022-08-05T19:24:04.971Z,1.50
2022-08-05T19:26:08.556Z,1.48
2022-08-05T19:28:42.318Z,1.52
2022-08-05T19:31:12.988Z,1.63
2022-08-05T19:33:53.086Z,1.80
2022-08-05T19:36:26.790Z,1.37
2022-08-05T19:39:00.616Z,1.30
2022-08-05T19:42:03.373Z,1.40
2022-08-05T19:44:18.956Z,1.95
2022-08-05T19:46:50.168Z,1.55
2022-08-05T19:49:17.979Z,1.98
2022-08-05T19:52:09.021Z,2.20
2022-08-05T19:54:34.989Z,2.08
2022-08-05T19:57:06.649Z,1.98
2022-08-05T19:59:55.247Z,2.08
2022-08-05T20:02:27.538Z,1.75
2022-08-05T20:04:58.597Z,2.00
2022-08-05T20:07:46.332Z,2.10
2022-08-05T20:10:17.124Z,1.67
2022-08-05T20:12:49.115Z,2.05
2022-08-05T20:15:48.589Z,1.70
2022-08-05T20:18:10.556Z,2.50
2022-08-05T20:20:56.009Z,2.03
2022-08-05T20:23:39.602Z,1.88
2022-08-05T20:26:16.057Z,1.17
2022-08-05T20:28:48.809Z,1.90
2022-08-05T20:31:17.584Z,1.83
2022-08-05T20:33:49.228Z,1.63
2022-08-05T20:36:18.012Z,1.90
2022-08-05T20:38:54.469Z,1.50
2022-08-05T20:41:44.406Z,2.03
2022-08-05T20:44:18.413Z,1.90
2022-08-05T20:46:57.935Z,1.70
2022-08-05T20:49:25.968Z,2.08
2022-08-05T20:51:54.618Z,1.70
2022-08-05T20:54:25.234Z,1.42
2022-08-05T20:56:53.313Z,1.73
2022-08-05T20:59:26.511Z,1.58
2022-08-05T21:01:57.376Z,1.73
2022-08-05T21:04:26.893Z,1.63
2022-08-05T21:06:55.051Z,1.70
2022-08-05T21:09:22.938Z,1.88
2022-08-05T21:12:09.747Z,2.00
2022-08-05T21:14:39.675Z,1.38
2022-08-05T21:17:06.920Z,1.85
2022-08-05T21:19:46.517Z,1.80
2022-08-05T21:22:17.675Z,1.40
2022-08-05T21:24:45.801Z,1.98
2022-08-05T21:27:16.712Z,1.38
2022-08-05T21:29:48.509Z,1.27
2022-08-05T21:32:20.150Z,1.35
2022-08-05T21:35:06.900Z,1.20
2022-08-05T21:37:34.996Z,1.38
2022-08-05T21:40:13.619Z,1.52
2022-08-05T21:42:45.298Z,1.33
2022-08-05T21:45:24.517Z,1.17
2022-08-05T21:47:56.628Z,1.25
2022-08-05T21:50:27.699Z,1.33
2022-08-05T21:53:04.295Z,1.17
2022-08-05T21:56:01.175Z,1.23
2022-08-05T21:58:24.959Z,1.08
2022-08-05T22:00:58.959Z,1.17
2022-08-05T22:03:48.452Z,1.05
2022-08-05T22:06:12.985Z,1.13
2022-08-05T22:08:42.740Z,0.65
2022-08-05T22:11:15.484Z,0.75
2022-08-05T22:14:31.257Z,0.90
2022-08-05T22:16:51.861Z,0.80
2022-08-05T22:19:57.431Z,0.82
2022-08-05T22:22:05.609Z,0.75
2022-08-05T22:24:52.055Z,1.02
2022-08-05T22:28:10.181Z,1.08
2022-08-05T22:30:25.000Z,1.13
2022-08-05T22:33:00.198Z,1.05
2022-08-05T22:35:31.219Z,1.10
2022-08-05T22:38:14.309Z,1.30
2022-08-05T22:40:42.323Z,1.15
2022-08-05T22:43:36.713Z,1.42
2022-08-05T22:46:13.305Z,1.00
2022-08-05T22:48:42.091Z,1.17
2022-08-05T22:51:15.976Z,1.52
2022-08-05T22:53:51.111Z,1.17
2022-08-05T22:56:30.001Z,1.75
2022-08-05T22:59:02.753Z,1.33
2022-08-05T23:02:05.227Z,1.25
2022-08-05T23:04:18.015Z,1.63
2022-08-05T23:06:44.965Z,1.88
2022-08-05T23:09:27.634Z,1.50
2022-08-05T23:12:01.963Z,2.00
2022-08-05T23:14:31.740Z,2.90
2022-08-05T23:17:24.180Z,2.33
2022-08-05T23:20:01.114Z,2.60
2022-08-05T23:22:30.846Z,2.47
2022-08-05T23:24:58.141Z,1.90
2022-08-05T23:27:28.721Z,2.22
2022-08-05T23:30:00.855Z,2.58
2022-08-05T23:32:28.352Z,1.92
2022-08-05T23:34:56.558Z,2.15
2022-08-05T23:37:23.726Z,3.15
2022-08-05T23:39:54.920Z,4.57
2022-08-05T23:42:29.061Z,5.35
2022-08-05T23:44:57.109Z,5.38
2022-08-05T23:47:25.300Z,5.75
2022-08-05T23:49:55.572Z,4.28
2022-08-05T23:52:36.034Z,4.40
2022-08-05T23:55:09.825Z,4.75
2022-08-05T23:57:38.198Z,4.00
